sensor_id;sensor_type;location;lat;lon;timestamp;temperature;humidity
14682;DHT22;7429;52.498;13.480;2022-11-02T00:02:18;9.10;99.90
14682;DHT22;7429;52.498;13.480;2022-11-02T00:05:21;9.20;99.90
14682;DHT22;7429;52.498;13.480;2022-11-02T00:08:25;9.10;99.90
14682;DHT22;7429;52.498;13.480;2022-11-02T00:11:29;9.10;99.90
14682;DHT22;7429;52.498;13.480;2022-11-02T00:14:33;9.10;99.90
14682;DHT22;7429;52.498;13.480;2022-11-02T00:17:36;9.10;99.90
14682;DHT22;7429;52.498;13.480;2022-11-02T00:20:42;9.10;99.90
14682;DHT22;7429;52.498;13.480;2022-11-02T00:23:45;9.00;99.90
14682;DHT22;7429;52.498;13.480;2022-11-02T00:26:52;9.00;99.90
14682;DHT22;7429;52.498;13.480;2022-11-02T00:29:55;8.90;99.90
14682;DHT22;7429;52.498;13.480;2022-11-02T00:32:58;8.90;99.90
14682;DHT22;7429;52.498;13.480;2022-11-02T00:36:03;8.90;99.90
14682;DHT22;7429;52.498;13.480;2022-11-02T00:39:06;8.80;99.90
14682;DHT22;7429;52.498;13.480;2022-11-02T00:42:10;8.80;99.90
14682;DHT22;7429;52.498;13.480;2022-11-02T00:45:13;8.80;99.90
14682;DHT22;7429;52.498;13.480;2022-11-02T00:48:16;8.80;99.90
14682;DHT22;7429;52.498;13.480;2022-11-02T00:51:19;8.70;99.90
14682;DHT22;7429;52.498;13.480;2022-11-02T00:54:22;8.70;99.90
14682;DHT22;7429;52.498;13.480;2022-11-02T00:57:31;8.70;99.90
14682;DHT22;7429;52.498;13.480;2022-11-02T01:00:34;8.70;99.90
14682;DHT22;7429;52.498;13.480;2022-11-02T01:03:38;8.60;99.90
14682;DHT22;7429;52.498;13.480;2022-11-02T01:06:41;8.60;99.90
14682;DHT22;7429;52.498;13.480;2022-11-02T01:09:45;8.60;99.90
14682;DHT22;7429;52.498;13.480;2022-11-02T01:12:49;8.60;99.90
14682;DHT22;7429;52.498;13.480;2022-11-02T01:15:52;8.50;99.90
14682;DHT22;7429;52.498;13.480;2022-11-02T01:18:57;8.50;99.90
14682;DHT22;7429;52.498;13.480;2022-11-02T01:22:01;8.50;99.90
14682;DHT22;7429;52.498;13.480;2022-11-02T01:25:04;8.50;99.90
14682;DHT22;7429;52.498;13.480;2022-11-02T01:28:10;8.50;99.90
14682;DHT22;7429;52.498;13.480;2022-11-02T01:31:13;8.50;99.90
14682;DHT22;7429;52.498;13.480;2022-11-02T01:34:16;8.50;99.90
14682;DHT22;7429;52.498;13.480;2022-11-02T01:37:22;8.40;99.90
14682;DHT22;7429;52.498;13.480;2022-11-02T01:40:25;8.40;99.90
14682;DHT22;7429;52.498;13.480;2022-11-02T01:43:31;8.30;99.90
14682;DHT22;7429;52.498;13.480;2022-11-02T01:46:38;8.20;99.90
14682;DHT22;7429;52.498;13.480;2022-11-02T01:49:45;8.30;99.90
14682;DHT22;7429;52.498;13.480;2022-11-02T01:52:50;8.30;99.90
14682;DHT22;7429;52.498;13.480;2022-11-02T01:55:54;8.20;99.90
14682;DHT22;7429;52.498;13.480;2022-11-02T01:59:02;8.20;99.90
14682;DHT22;7429;52.498;13.480;2022-11-02T02:02:12;8.10;99.90
14682;DHT22;7429;52.498;13.480;2022-11-02T02:05:20;8.10;99.90
14682;DHT22;7429;52.498;13.480;2022-11-02T02:08:26;8.10;99.90
14682;DHT22;7429;52.498;13.480;2022-11-02T02:11:31;8.10;99.90
14682;DHT22;7429;52.498;13.480;2022-11-02T02:14:36;8.10;99.90
14682;DHT22;7429;52.498;13.480;2022-11-02T02:17:44;8.10;99.90
14682;DHT22;7429;52.498;13.480;2022-11-02T02:21:00;8.10;99.90
14682;DHT22;7429;52.498;13.480;2022-11-02T02:24:23;8.10;99.90
14682;DHT22;7429;52.498;13.480;2022-11-02T02:28:01;8.00;99.90
14682;DHT22;7429;52.498;13.480;2022-11-02T02:31:14;8.00;99.90
14682;DHT22;7429;52.498;13.480;2022-11-02T02:34:23;8.00;99.90
14682;DHT22;7429;52.498;13.480;2022-11-02T02:37:33;8.00;99.90
14682;DHT22;7429;52.498;13.480;2022-11-02T02:40:40;8.00;99.90
14682;DHT22;7429;52.498;13.480;2022-11-02T02:43:52;8.00;99.90
14682;DHT22;7429;52.498;13.480;2022-11-02T02:46:59;8.00;99.90
14682;DHT22;7429;52.498;13.480;2022-11-02T02:50:10;8.00;99.90
14682;DHT22;7429;52.498;13.480;2022-11-02T02:53:19;7.90;99.90
14682;DHT22;7429;52.498;13.480;2022-11-02T02:56:28;7.90;99.90
14682;DHT22;7429;52.498;13.480;2022-11-02T02:59:38;7.80;99.90
14682;DHT22;7429;52.498;13.480;2022-11-02T03:02:45;7.80;99.90
14682;DHT22;7429;52.498;13.480;2022-11-02T03:06:06;7.80;99.90
14682;DHT22;7429;52.498;13.480;2022-11-02T03:09:28;7.80;99.90
14682;DHT22;7429;52.498;13.480;2022-11-02T03:12:43;7.80;99.90
14682;DHT22;7429;52.498;13.480;2022-11-02T03:15:58;7.70;99.90
14682;DHT22;7429;52.498;13.480;2022-11-02T03:19:13;7.80;99.90
14682;DHT22;7429;52.498;13.480;2022-11-02T03:22:28;7.80;99.90
14682;DHT22;7429;52.498;13.480;2022-11-02T03:25:40;7.80;99.90
14682;DHT22;7429;52.498;13.480;2022-11-02T03:28:57;7.90;99.90
14682;DHT22;7429;52.498;13.480;2022-11-02T03:32:07;7.80;99.90
14682;DHT22;7429;52.498;13.480;2022-11-02T03:35:16;7.80;99.90
14682;DHT22;7429;52.498;13.480;2022-11-02T03:38:25;7.70;99.90
14682;DHT22;7429;52.498;13.480;2022-11-02T03:41:35;7.70;99.90
14682;DHT22;7429;52.498;13.480;2022-11-02T03:44:40;7.70;99.90
14682;DHT22;7429;52.498;13.480;2022-11-02T03:47:49;7.80;99.90
14682;DHT22;7429;52.498;13.480;2022-11-02T03:50:57;7.80;99.90
14682;DHT22;7429;52.498;13.480;2022-11-02T03:54:06;7.90;99.90
14682;DHT22;7429;52.498;13.480;2022-11-02T03:57:16;7.90;99.90
14682;DHT22;7429;52.498;13.480;2022-11-02T04:00:22;7.90;99.90
14682;DHT22;7429;52.498;13.480;2022-11-02T04:03:38;7.90;99.90
14682;DHT22;7429;52.498;13.480;2022-11-02T04:06:44;7.90;99.90
14682;DHT22;7429;52.498;13.480;2022-11-02T04:09:49;7.90;99.90
14682;DHT22;7429;52.498;13.480;2022-11-02T04:12:52;7.80;99.90
14682;DHT22;7429;52.498;13.480;2022-11-02T04:16:13;7.80;99.90
14682;DHT22;7429;52.498;13.480;2022-11-02T04:19:18;7.80;99.90
14682;DHT22;7429;52.498;13.480;2022-11-02T04:22:34;7.80;99.90
14682;DHT22;7429;52.498;13.480;2022-11-02T04:25:55;7.90;99.90
14682;DHT22;7429;52.498;13.480;2022-11-02T04:29:19;7.90;99.90
14682;DHT22;7429;52.498;13.480;2022-11-02T04:32:22;7.90;99.90
14682;DHT22;7429;52.498;13.480;2022-11-02T04:35:44;7.80;99.90
14682;DHT22;7429;52.498;13.480;2022-11-02T04:38:47;7.80;99.90
14682;DHT22;7429;52.498;13.480;2022-11-02T04:41:54;7.80;99.90
14682;DHT22;7429;52.498;13.480;2022-11-02T04:45:09;7.80;99.90
14682;DHT22;7429;52.498;13.480;2022-11-02T04:48:12;7.70;99.90
14682;DHT22;7429;52.498;13.480;2022-11-02T04:51:18;7.70;99.90
14682;DHT22;7429;52.498;13.480;2022-11-02T04:54:22;7.70;99.90
14682;DHT22;7429;52.498;13.480;2022-11-02T04:57:30;7.70;99.90
14682;DHT22;7429;52.498;13.480;2022-11-02T05:00:34;7.70;99.90
14682;DHT22;7429;52.498;13.480;2022-11-02T05:03:37;7.70;99.90
14682;DHT22;7429;52.498;13.480;2022-11-02T05:06:42;7.70;99.90
14682;DHT22;7429;52.498;13.480;2022-11-02T05:09:46;7.70;99.90
14682;DHT22;7429;52.498;13.480;2022-11-02T05:12:55;7.70;99.90
14682;DHT22;7429;52.498;13.480;2022-11-02T05:16:02;7.60;99.90
14682;DHT22;7429;52.498;13.480;2022-11-02T05:19:06;7.60;99.90
14682;DHT22;7429;52.498;13.480;2022-11-02T05:22:14;7.50;99.90
14682;DHT22;7429;52.498;13.480;2022-11-02T05:25:17;7.50;99.90
14682;DHT22;7429;52.498;13.480;2022-11-02T05:28:21;7.50;99.90
14682;DHT22;7429;52.498;13.480;2022-11-02T05:31:25;7.50;99.90
14682;DHT22;7429;52.498;13.480;2022-11-02T05:34:28;7.50;99.90
14682;DHT22;7429;52.498;13.480;2022-11-02T05:37:32;7.60;99.90
14682;DHT22;7429;52.498;13.480;2022-11-02T05:40:36;7.50;99.90
14682;DHT22;7429;52.498;13.480;2022-11-02T05:43:43;7.50;99.90
14682;DHT22;7429;52.498;13.480;2022-11-02T05:46:48;7.50;99.90
14682;DHT22;7429;52.498;13.480;2022-11-02T05:49:51;7.50;99.90
14682;DHT22;7429;52.498;13.480;2022-11-02T05:52:55;7.50;99.90
14682;DHT22;7429;52.498;13.480;2022-11-02T05:55:58;7.50;99.90
14682;DHT22;7429;52.498;13.480;2022-11-02T05:59:05;7.60;99.90
14682;DHT22;7429;52.498;13.480;2022-11-02T06:02:08;7.60;99.90
14682;DHT22;7429;52.498;13.480;2022-11-02T06:05:11;7.70;99.90
14682;DHT22;7429;52.498;13.480;2022-11-02T06:08:16;7.60;99.90
14682;DHT22;7429;52.498;13.480;2022-11-02T06:11:19;7.60;99.90
14682;DHT22;7429;52.498;13.480;2022-11-02T06:14:22;7.60;99.90
14682;DHT22;7429;52.498;13.480;2022-11-02T06:17:25;7.60;99.90
14682;DHT22;7429;52.498;13.480;2022-11-02T06:20:28;7.60;99.90
14682;DHT22;7429;52.498;13.480;2022-11-02T06:23:32;7.70;99.90
14682;DHT22;7429;52.498;13.480;2022-11-02T06:26:35;7.70;99.90
14682;DHT22;7429;52.498;13.480;2022-11-02T06:29:38;7.70;99.90
14682;DHT22;7429;52.498;13.480;2022-11-02T06:32:45;7.60;99.90
14682;DHT22;7429;52.498;13.480;2022-11-02T06:35:50;7.70;99.90
14682;DHT22;7429;52.498;13.480;2022-11-02T06:38:55;7.70;99.90
14682;DHT22;7429;52.498;13.480;2022-11-02T06:41:58;7.80;99.90
14682;DHT22;7429;52.498;13.480;2022-11-02T06:45:01;7.90;99.90
14682;DHT22;7429;52.498;13.480;2022-11-02T06:48:04;8.00;99.90
14682;DHT22;7429;52.498;13.480;2022-11-02T06:51:07;8.00;99.90
14682;DHT22;7429;52.498;13.480;2022-11-02T06:54:12;8.10;99.90
14682;DHT22;7429;52.498;13.480;2022-11-02T06:57:15;8.10;99.90
14682;DHT22;7429;52.498;13.480;2022-11-02T07:00:18;8.10;99.90
14682;DHT22;7429;52.498;13.480;2022-11-02T07:03:25;8.20;99.90
14682;DHT22;7429;52.498;13.480;2022-11-02T07:06:28;8.20;99.90
14682;DHT22;7429;52.498;13.480;2022-11-02T07:09:33;8.20;99.90
14682;DHT22;7429;52.498;13.480;2022-11-02T07:12:36;8.20;99.90
14682;DHT22;7429;52.498;13.480;2022-11-02T07:15:39;8.40;99.90
14682;DHT22;7429;52.498;13.480;2022-11-02T07:18:42;8.40;99.90
14682;DHT22;7429;52.498;13.480;2022-11-02T07:21:45;8.40;99.90
14682;DHT22;7429;52.498;13.480;2022-11-02T07:24:50;8.40;99.90
14682;DHT22;7429;52.498;13.480;2022-11-02T07:27:53;8.40;99.90
14682;DHT22;7429;52.498;13.480;2022-11-02T07:30:56;8.50;99.90
14682;DHT22;7429;52.498;13.480;2022-11-02T07:34:00;8.60;99.90
14682;DHT22;7429;52.498;13.480;2022-11-02T07:37:03;8.70;99.90
14682;DHT22;7429;52.498;13.480;2022-11-02T07:40:10;8.80;99.90
14682;DHT22;7429;52.498;13.480;2022-11-02T07:43:14;8.90;99.90
14682;DHT22;7429;52.498;13.480;2022-11-02T07:46:27;8.90;99.90
14682;DHT22;7429;52.498;13.480;2022-11-02T07:49:29;9.10;99.90
14682;DHT22;7429;52.498;13.480;2022-11-02T07:52:32;9.20;99.90
14682;DHT22;7429;52.498;13.480;2022-11-02T07:55:37;9.40;99.90
14682;DHT22;7429;52.498;13.480;2022-11-02T07:58:41;9.50;99.90
14682;DHT22;7429;52.498;13.480;2022-11-02T08:01:44;9.70;99.90
14682;DHT22;7429;52.498;13.480;2022-11-02T08:04:47;9.90;99.90
14682;DHT22;7429;52.498;13.480;2022-11-02T08:07:56;10.00;99.90
14682;DHT22;7429;52.498;13.480;2022-11-02T08:11:05;10.20;99.90
14682;DHT22;7429;52.498;13.480;2022-11-02T08:14:09;10.40;99.90
14682;DHT22;7429;52.498;13.480;2022-11-02T08:17:12;10.60;99.90
14682;DHT22;7429;52.498;13.480;2022-11-02T08:20:15;10.70;99.90
14682;DHT22;7429;52.498;13.480;2022-11-02T08:23:19;10.80;99.90
14682;DHT22;7429;52.498;13.480;2022-11-02T08:26:23;10.80;99.90
14682;DHT22;7429;52.498;13.480;2022-11-02T08:29:26;10.90;99.90
14682;DHT22;7429;52.498;13.480;2022-11-02T08:32:29;11.00;99.90
14682;DHT22;7429;52.498;13.480;2022-11-02T08:35:33;11.10;99.90
14682;DHT22;7429;52.498;13.480;2022-11-02T08:38:38;11.20;99.90
14682;DHT22;7429;52.498;13.480;2022-11-02T08:41:42;11.30;99.90
14682;DHT22;7429;52.498;13.480;2022-11-02T08:44:45;11.30;99.90
14682;DHT22;7429;52.498;13.480;2022-11-02T08:47:48;11.40;99.90
14682;DHT22;7429;52.498;13.480;2022-11-02T08:50:51;11.40;99.90
14682;DHT22;7429;52.498;13.480;2022-11-02T08:53:54;11.50;99.90
14682;DHT22;7429;52.498;13.480;2022-11-02T08:56:59;11.40;99.90
14682;DHT22;7429;52.498;13.480;2022-11-02T09:00:02;11.40;99.90
14682;DHT22;7429;52.498;13.480;2022-11-02T09:03:08;11.40;99.90
14682;DHT22;7429;52.498;13.480;2022-11-02T09:06:12;11.50;99.90
14682;DHT22;7429;52.498;13.480;2022-11-02T09:09:15;11.50;99.90
14682;DHT22;7429;52.498;13.480;2022-11-02T09:12:20;11.60;99.90
14682;DHT22;7429;52.498;13.480;2022-11-02T09:15:23;11.60;99.90
14682;DHT22;7429;52.498;13.480;2022-11-02T09:18:26;11.60;99.90
14682;DHT22;7429;52.498;13.480;2022-11-02T09:21:29;11.70;99.90
14682;DHT22;7429;52.498;13.480;2022-11-02T09:24:32;11.80;99.90
14682;DHT22;7429;52.498;13.480;2022-11-02T09:27:37;12.00;99.90
14682;DHT22;7429;52.498;13.480;2022-11-02T09:30:40;12.00;99.90
14682;DHT22;7429;52.498;13.480;2022-11-02T09:33:43;12.10;99.90
14682;DHT22;7429;52.498;13.480;2022-11-02T09:36:46;12.00;99.90
14682;DHT22;7429;52.498;13.480;2022-11-02T09:39:49;12.20;99.90
14682;DHT22;7429;52.498;13.480;2022-11-02T09:43:05;12.30;99.90
14682;DHT22;7429;52.498;13.480;2022-11-02T09:46:18;12.40;99.90
14682;DHT22;7429;52.498;13.480;2022-11-02T09:49:23;12.60;99.90
14682;DHT22;7429;52.498;13.480;2022-11-02T09:52:32;12.70;99.90
14682;DHT22;7429;52.498;13.480;2022-11-02T09:55:44;12.90;99.90
14682;DHT22;7429;52.498;13.480;2022-11-02T09:58:57;13.00;99.90
14682;DHT22;7429;52.498;13.480;2022-11-02T10:02:10;13.10;99.90
14682;DHT22;7429;52.498;13.480;2022-11-02T10:05:29;13.30;99.90
14682;DHT22;7429;52.498;13.480;2022-11-02T10:08:40;13.40;99.90
14682;DHT22;7429;52.498;13.480;2022-11-02T10:11:54;13.60;99.90
14682;DHT22;7429;52.498;13.480;2022-11-02T10:15:07;13.70;99.90
14682;DHT22;7429;52.498;13.480;2022-11-02T10:18:17;13.80;99.90
14682;DHT22;7429;52.498;13.480;2022-11-02T10:21:25;13.90;99.90
14682;DHT22;7429;52.498;13.480;2022-11-02T10:24:32;14.00;99.90
14682;DHT22;7429;52.498;13.480;2022-11-02T10:27:38;14.20;99.90
14682;DHT22;7429;52.498;13.480;2022-11-02T10:30:43;14.30;99.90
14682;DHT22;7429;52.498;13.480;2022-11-02T10:33:47;14.40;99.90
14682;DHT22;7429;52.498;13.480;2022-11-02T10:37:06;14.60;99.90
14682;DHT22;7429;52.498;13.480;2022-11-02T10:40:30;14.60;99.90
14682;DHT22;7429;52.498;13.480;2022-11-02T10:44:04;14.60;99.90
14682;DHT22;7429;52.498;13.480;2022-11-02T10:47:17;14.70;99.90
14682;DHT22;7429;52.498;13.480;2022-11-02T10:50:34;14.80;99.90
14682;DHT22;7429;52.498;13.480;2022-11-02T10:53:47;15.00;99.90
14682;DHT22;7429;52.498;13.480;2022-11-02T10:56:55;15.20;99.90
14682;DHT22;7429;52.498;13.480;2022-11-02T11:00:22;15.30;99.90
14682;DHT22;7429;52.498;13.480;2022-11-02T11:03:31;15.40;99.90
14682;DHT22;7429;52.498;13.480;2022-11-02T11:06:36;15.50;99.90
14682;DHT22;7429;52.498;13.480;2022-11-02T11:09:46;15.50;99.90
14682;DHT22;7429;52.498;13.480;2022-11-02T11:12:50;15.70;99.90
14682;DHT22;7429;52.498;13.480;2022-11-02T11:15:53;15.80;99.90
14682;DHT22;7429;52.498;13.480;2022-11-02T11:18:58;15.70;99.90
14682;DHT22;7429;52.498;13.480;2022-11-02T11:22:25;15.60;99.90
14682;DHT22;7429;52.498;13.480;2022-11-02T11:25:29;15.50;99.90
14682;DHT22;7429;52.498;13.480;2022-11-02T11:28:36;15.30;99.90
14682;DHT22;7429;52.498;13.480;2022-11-02T11:31:41;15.20;99.90
14682;DHT22;7429;52.498;13.480;2022-11-02T11:34:52;15.20;99.90
14682;DHT22;7429;52.498;13.480;2022-11-02T11:38:00;15.20;99.90
14682;DHT22;7429;52.498;13.480;2022-11-02T11:41:10;15.20;99.90
14682;DHT22;7429;52.498;13.480;2022-11-02T11:44:14;15.20;99.90
14682;DHT22;7429;52.498;13.480;2022-11-02T11:47:24;15.20;99.90
14682;DHT22;7429;52.498;13.480;2022-11-02T11:50:29;15.20;99.90
14682;DHT22;7429;52.498;13.480;2022-11-02T11:53:32;15.20;99.90
14682;DHT22;7429;52.498;13.480;2022-11-02T11:56:36;15.20;99.90
14682;DHT22;7429;52.498;13.480;2022-11-02T11:59:47;15.10;99.90
14682;DHT22;7429;52.498;13.480;2022-11-02T12:03:01;15.00;99.90
14682;DHT22;7429;52.498;13.480;2022-11-02T12:06:17;15.00;99.90
14682;DHT22;7429;52.498;13.480;2022-11-02T12:09:29;14.90;99.90
14682;DHT22;7429;52.498;13.480;2022-11-02T12:12:54;14.90;99.90
14682;DHT22;7429;52.498;13.480;2022-11-02T12:16:13;14.90;99.90
14682;DHT22;7429;52.498;13.480;2022-11-02T12:19:25;14.90;99.90
14682;DHT22;7429;52.498;13.480;2022-11-02T12:22:43;14.90;99.90
14682;DHT22;7429;52.498;13.480;2022-11-02T12:25:55;14.90;99.90
14682;DHT22;7429;52.498;13.480;2022-11-02T12:29:19;15.00;99.90
14682;DHT22;7429;52.498;13.480;2022-11-02T12:32:47;15.00;99.90
14682;DHT22;7429;52.498;13.480;2022-11-02T12:36:09;15.00;99.90
14682;DHT22;7429;52.498;13.480;2022-11-02T12:39:22;15.20;99.90
14682;DHT22;7429;52.498;13.480;2022-11-02T12:42:32;15.40;99.90
14682;DHT22;7429;52.498;13.480;2022-11-02T12:45:48;15.50;99.90
14682;DHT22;7429;52.498;13.480;2022-11-02T12:49:05;15.50;99.90
14682;DHT22;7429;52.498;13.480;2022-11-02T12:52:28;15.50;99.90
14682;DHT22;7429;52.498;13.480;2022-11-02T12:55:42;15.40;99.90
14682;DHT22;7429;52.498;13.480;2022-11-02T12:58:47;15.30;99.90
14682;DHT22;7429;52.498;13.480;2022-11-02T13:01:53;15.40;99.90
14682;DHT22;7429;52.498;13.480;2022-11-02T13:05:02;15.40;99.90
14682;DHT22;7429;52.498;13.480;2022-11-02T13:08:12;15.40;99.90
14682;DHT22;7429;52.498;13.480;2022-11-02T13:11:22;15.50;99.90
14682;DHT22;7429;52.498;13.480;2022-11-02T13:14:32;15.50;99.90
14682;DHT22;7429;52.498;13.480;2022-11-02T13:17:41;15.60;99.90
14682;DHT22;7429;52.498;13.480;2022-11-02T13:20:49;15.70;99.90
14682;DHT22;7429;52.498;13.480;2022-11-02T13:23:56;15.70;99.90
14682;DHT22;7429;52.498;13.480;2022-11-02T13:27:04;15.70;99.90
14682;DHT22;7429;52.498;13.480;2022-11-02T13:30:28;15.80;99.90
14682;DHT22;7429;52.498;13.480;2022-11-02T13:33:39;16.00;99.90
14682;DHT22;7429;52.498;13.480;2022-11-02T13:36:45;16.00;99.90
14682;DHT22;7429;52.498;13.480;2022-11-02T13:39:52;16.00;99.90
14682;DHT22;7429;52.498;13.480;2022-11-02T13:43:14;16.00;99.90
14682;DHT22;7429;52.498;13.480;2022-11-02T13:46:38;16.00;99.90
14682;DHT22;7429;52.498;13.480;2022-11-02T13:49:49;16.00;99.90
14682;DHT22;7429;52.498;13.480;2022-11-02T13:52:56;16.00;99.90
14682;DHT22;7429;52.498;13.480;2022-11-02T13:56:03;16.00;99.90
14682;DHT22;7429;52.498;13.480;2022-11-02T13:59:18;16.10;99.90
14682;DHT22;7429;52.498;13.480;2022-11-02T14:02:27;16.10;99.90
14682;DHT22;7429;52.498;13.480;2022-11-02T14:05:34;16.00;99.90
14682;DHT22;7429;52.498;13.480;2022-11-02T14:08:48;15.90;99.90
14682;DHT22;7429;52.498;13.480;2022-11-02T14:12:24;15.80;99.90
14682;DHT22;7429;52.498;13.480;2022-11-02T14:15:53;15.60;99.90
14682;DHT22;7429;52.498;13.480;2022-11-02T14:19:13;15.40;99.90
14682;DHT22;7429;52.498;13.480;2022-11-02T14:22:23;15.40;99.90
14682;DHT22;7429;52.498;13.480;2022-11-02T14:25:45;15.30;99.90
14682;DHT22;7429;52.498;13.480;2022-11-02T14:28:49;15.20;99.90
14682;DHT22;7429;52.498;13.480;2022-11-02T14:31:59;15.20;99.90
14682;DHT22;7429;52.498;13.480;2022-11-02T14:35:15;15.20;99.90
14682;DHT22;7429;52.498;13.480;2022-11-02T14:42:19;15.00;99.90
14682;DHT22;7429;52.498;13.480;2022-11-02T14:45:44;15.00;99.90
14682;DHT22;7429;52.498;13.480;2022-11-02T14:48:58;15.00;99.90
14682;DHT22;7429;52.498;13.480;2022-11-02T14:52:05;15.00;99.90
14682;DHT22;7429;52.498;13.480;2022-11-02T14:55:22;15.00;99.90
14682;DHT22;7429;52.498;13.480;2022-11-02T14:58:31;15.00;99.90
14682;DHT22;7429;52.498;13.480;2022-11-02T15:01:47;14.90;99.90
14682;DHT22;7429;52.498;13.480;2022-11-02T15:04:56;14.80;99.90
14682;DHT22;7429;52.498;13.480;2022-11-02T15:08:03;14.80;99.90
14682;DHT22;7429;52.498;13.480;2022-11-02T15:11:42;14.70;99.90
14682;DHT22;7429;52.498;13.480;2022-11-02T15:14:53;14.70;99.90
14682;DHT22;7429;52.498;13.480;2022-11-02T15:18:20;14.60;99.90
14682;DHT22;7429;52.498;13.480;2022-11-02T15:21:29;14.50;99.90
14682;DHT22;7429;52.498;13.480;2022-11-02T15:24:34;14.40;99.90
14682;DHT22;7429;52.498;13.480;2022-11-02T15:27:40;14.40;99.90
14682;DHT22;7429;52.498;13.480;2022-11-02T15:30:48;14.30;99.90
14682;DHT22;7429;52.498;13.480;2022-11-02T15:33:55;14.30;99.90
14682;DHT22;7429;52.498;13.480;2022-11-02T15:37:01;14.20;99.90
14682;DHT22;7429;52.498;13.480;2022-11-02T15:40:17;14.20;99.90
14682;DHT22;7429;52.498;13.480;2022-11-02T15:43:45;14.10;99.90
14682;DHT22;7429;52.498;13.480;2022-11-02T15:47:06;14.00;99.90
14682;DHT22;7429;52.498;13.480;2022-11-02T15:50:22;13.90;99.90
14682;DHT22;7429;52.498;13.480;2022-11-02T15:53:57;13.90;99.90
14682;DHT22;7429;52.498;13.480;2022-11-02T15:57:22;13.80;99.90
14682;DHT22;7429;52.498;13.480;2022-11-02T16:00:27;13.70;99.90
14682;DHT22;7429;52.498;13.480;2022-11-02T16:03:32;13.70;99.90
14682;DHT22;7429;52.498;13.480;2022-11-02T16:06:37;13.70;99.90
14682;DHT22;7429;52.498;13.480;2022-11-02T16:09:43;13.60;99.90
14682;DHT22;7429;52.498;13.480;2022-11-02T16:12:58;13.60;99.90
14682;DHT22;7429;52.498;13.480;2022-11-02T16:16:05;13.60;99.90
14682;DHT22;7429;52.498;13.480;2022-11-02T16:19:17;13.50;99.90
14682;DHT22;7429;52.498;13.480;2022-11-02T16:22:23;13.50;99.90
14682;DHT22;7429;52.498;13.480;2022-11-02T16:25:33;13.50;99.90
14682;DHT22;7429;52.498;13.480;2022-11-02T16:28:41;13.40;99.90
14682;DHT22;7429;52.498;13.480;2022-11-02T16:31:44;13.40;99.90
14682;DHT22;7429;52.498;13.480;2022-11-02T16:34:47;13.40;99.90
14682;DHT22;7429;52.498;13.480;2022-11-02T16:37:51;13.30;99.90
14682;DHT22;7429;52.498;13.480;2022-11-02T16:40:57;13.30;99.90
14682;DHT22;7429;52.498;13.480;2022-11-02T16:44:07;13.30;99.90
14682;DHT22;7429;52.498;13.480;2022-11-02T16:47:19;13.20;99.90
14682;DHT22;7429;52.498;13.480;2022-11-02T16:50:30;13.20;99.90
14682;DHT22;7429;52.498;13.480;2022-11-02T16:53:34;13.10;99.90
14682;DHT22;7429;52.498;13.480;2022-11-02T16:56:39;13.00;99.90
14682;DHT22;7429;52.498;13.480;2022-11-02T16:59:48;13.00;99.90
14682;DHT22;7429;52.498;13.480;2022-11-02T17:02:53;12.90;99.90
14682;DHT22;7429;52.498;13.480;2022-11-02T17:05:59;12.90;99.90
14682;DHT22;7429;52.498;13.480;2022-11-02T17:09:03;12.80;99.90
14682;DHT22;7429;52.498;13.480;2022-11-02T17:12:12;12.80;99.90
14682;DHT22;7429;52.498;13.480;2022-11-02T17:15:19;12.70;99.90
14682;DHT22;7429;52.498;13.480;2022-11-02T17:18:25;12.70;99.90
14682;DHT22;7429;52.498;13.480;2022-11-02T17:21:30;12.60;99.90
14682;DHT22;7429;52.498;13.480;2022-11-02T17:24:33;12.60;99.90
14682;DHT22;7429;52.498;13.480;2022-11-02T17:27:39;12.50;99.90
14682;DHT22;7429;52.498;13.480;2022-11-02T17:30:45;12.50;99.90
14682;DHT22;7429;52.498;13.480;2022-11-02T17:33:49;12.50;99.90
14682;DHT22;7429;52.498;13.480;2022-11-02T17:36:53;12.50;99.90
14682;DHT22;7429;52.498;13.480;2022-11-02T17:39:59;12.50;99.90
14682;DHT22;7429;52.498;13.480;2022-11-02T17:43:04;12.50;99.90
14682;DHT22;7429;52.498;13.480;2022-11-02T17:46:07;12.50;99.90
14682;DHT22;7429;52.498;13.480;2022-11-02T17:49:10;12.40;99.90
14682;DHT22;7429;52.498;13.480;2022-11-02T17:52:14;12.40;99.90
14682;DHT22;7429;52.498;13.480;2022-11-02T17:55:19;12.30;99.90
14682;DHT22;7429;52.498;13.480;2022-11-02T17:58:25;12.30;99.90
14682;DHT22;7429;52.498;13.480;2022-11-02T18:01:29;12.20;99.90
14682;DHT22;7429;52.498;13.480;2022-11-02T18:04:33;12.10;99.90
14682;DHT22;7429;52.498;13.480;2022-11-02T18:07:37;12.00;99.90
14682;DHT22;7429;52.498;13.480;2022-11-02T18:10:42;11.90;99.90
14682;DHT22;7429;52.498;13.480;2022-11-02T18:13:47;11.90;99.90
14682;DHT22;7429;52.498;13.480;2022-11-02T18:16:50;11.70;99.90
14682;DHT22;7429;52.498;13.480;2022-11-02T18:19:53;11.70;99.90
14682;DHT22;7429;52.498;13.480;2022-11-02T18:22:57;11.60;99.90
14682;DHT22;7429;52.498;13.480;2022-11-02T18:26:01;11.60;99.90
14682;DHT22;7429;52.498;13.480;2022-11-02T18:29:06;11.50;99.90
14682;DHT22;7429;52.498;13.480;2022-11-02T18:32:09;11.40;99.90
14682;DHT22;7429;52.498;13.480;2022-11-02T18:35:14;11.40;99.90
14682;DHT22;7429;52.498;13.480;2022-11-02T18:38:18;11.30;99.90
14682;DHT22;7429;52.498;13.480;2022-11-02T18:41:21;11.10;99.90
14682;DHT22;7429;52.498;13.480;2022-11-02T18:44:32;11.00;99.90
14682;DHT22;7429;52.498;13.480;2022-11-02T18:47:35;10.80;99.90
14682;DHT22;7429;52.498;13.480;2022-11-02T18:50:39;10.70;99.90
14682;DHT22;7429;52.498;13.480;2022-11-02T18:53:42;10.70;99.90
14682;DHT22;7429;52.498;13.480;2022-11-02T18:56:45;10.60;99.90
14682;DHT22;7429;52.498;13.480;2022-11-02T18:59:50;10.60;99.90
14682;DHT22;7429;52.498;13.480;2022-11-02T19:02:53;10.50;99.90
14682;DHT22;7429;52.498;13.480;2022-11-02T19:05:56;10.40;99.90
14682;DHT22;7429;52.498;13.480;2022-11-02T19:09:18;10.20;99.90
14682;DHT22;7429;52.498;13.480;2022-11-02T19:12:25;10.10;99.90
14682;DHT22;7429;52.498;13.480;2022-11-02T19:15:33;10.10;99.90
14682;DHT22;7429;52.498;13.480;2022-11-02T19:18:43;10.00;99.90
14682;DHT22;7429;52.498;13.480;2022-11-02T19:21:46;9.90;99.90
14682;DHT22;7429;52.498;13.480;2022-11-02T19:24:50;9.70;99.90
14682;DHT22;7429;52.498;13.480;2022-11-02T19:27:53;9.70;99.90
14682;DHT22;7429;52.498;13.480;2022-11-02T19:30:58;9.60;99.90
14682;DHT22;7429;52.498;13.480;2022-11-02T19:34:01;9.50;99.90
14682;DHT22;7429;52.498;13.480;2022-11-02T19:37:06;9.40;99.90
14682;DHT22;7429;52.498;13.480;2022-11-02T19:40:10;9.30;99.90
14682;DHT22;7429;52.498;13.480;2022-11-02T19:43:14;9.20;99.90
14682;DHT22;7429;52.498;13.480;2022-11-02T19:46:19;9.10;99.90
14682;DHT22;7429;52.498;13.480;2022-11-02T19:49:23;9.00;99.90
14682;DHT22;7429;52.498;13.480;2022-11-02T19:52:27;9.00;99.90
14682;DHT22;7429;52.498;13.480;2022-11-02T19:55:30;8.90;99.90
14682;DHT22;7429;52.498;13.480;2022-11-02T19:58:33;8.90;99.90
14682;DHT22;7429;52.498;13.480;2022-11-02T20:01:39;8.80;99.90